createdAt,value
2018-04-25T00:00:45.551Z,971.41
2018-04-25T00:01:45.796Z,971.38
2018-04-25T00:02:46.020Z,971.37
2018-04-25T00:03:46.276Z,971.37
2018-04-25T00:04:46.508Z,971.36
2018-04-25T00:05:46.743Z,971.33
2018-04-25T00:06:46.974Z,971.35
2018-04-25T00:07:47.217Z,971.32
2018-04-25T00:08:47.436Z,971.36
2018-04-25T00:09:47.675Z,971.31
2018-04-25T00:10:47.914Z,971.31
2018-04-25T00:11:48.150Z,971.28
2018-04-25T00:12:48.388Z,971.34
2018-04-25T00:13:48.632Z,971.26
2018-04-25T00:14:48.874Z,971.26
2018-04-25T00:15:49.110Z,971.32
2018-04-25T00:16:49.353Z,971.22
2018-04-25T00:17:49.596Z,971.24
2018-04-25T00:18:49.843Z,971.24
2018-04-25T00:19:50.080Z,971.21
2018-04-25T00:20:50.307Z,971.21
2018-04-25T00:21:50.553Z,971.22
2018-04-25T00:22:50.792Z,971.23
2018-04-25T00:23:51.036Z,971.20
2018-04-25T00:24:51.274Z,971.23
2018-04-25T00:25:51.523Z,971.11
2018-04-25T00:26:51.759Z,971.17
2018-04-25T00:27:52.004Z,971.15
2018-04-25T00:28:52.241Z,971.15
2018-04-25T00:29:52.471Z,971.14
2018-04-25T00:30:52.722Z,971.10
2018-04-25T00:31:52.950Z,971.10
2018-04-25T00:32:53.200Z,971.11
2018-04-25T00:33:53.428Z,971.09
2018-04-25T00:34:53.686Z,971.06
2018-04-25T00:35:53.900Z,971.07
2018-04-25T00:36:54.157Z,971.03
2018-04-25T00:37:54.374Z,971.06
2018-04-25T00:38:54.616Z,971.03
2018-04-25T00:39:54.857Z,971.05
2018-04-25T00:40:55.119Z,971.00
2018-04-25T00:41:55.399Z,971.02
2018-04-25T00:42:55.566Z,970.95
2018-04-25T00:43:55.809Z,970.99
2018-04-25T00:44:56.036Z,970.96
2018-04-25T00:45:56.290Z,970.99
2018-04-25T00:46:56.535Z,970.98
2018-04-25T00:47:56.742Z,970.97
2018-04-25T00:48:56.970Z,971.04
2018-04-25T00:49:57.209Z,970.99
2018-04-25T00:50:57.439Z,970.99
2018-04-25T00:51:57.687Z,971.03
2018-04-25T00:52:57.904Z,971.00
2018-04-25T00:53:58.167Z,970.97
2018-04-25T00:54:58.408Z,970.99
2018-04-25T00:55:58.666Z,971.01
2018-04-25T00:56:58.867Z,970.97
2018-04-25T00:57:59.128Z,970.98
2018-04-25T00:58:59.375Z,970.98
2018-04-25T00:59:59.605Z,970.96
2018-04-25T01:00:59.840Z,970.97
2018-04-25T01:02:00.050Z,970.96
2018-04-25T01:03:00.318Z,970.93
2018-04-25T01:04:00.530Z,970.94
2018-04-25T01:05:00.771Z,970.95
2018-04-25T01:06:00.989Z,970.94
2018-04-25T01:07:01.227Z,970.93
2018-04-25T01:08:01.470Z,970.92
2018-04-25T01:09:01.708Z,970.91
2018-04-25T01:10:01.950Z,970.91
2018-04-25T01:11:02.193Z,970.90
2018-04-25T01:12:02.485Z,970.90
2018-04-25T01:13:02.684Z,970.88
2018-04-25T01:14:02.922Z,970.87
2018-04-25T01:15:03.155Z,970.83
2018-04-25T01:16:03.397Z,970.83
2018-04-25T01:17:03.633Z,970.78
2018-04-25T01:18:03.872Z,970.79
2018-04-25T01:19:04.114Z,970.76
2018-04-25T01:20:04.356Z,970.81
2018-04-25T01:21:04.588Z,970.78
2018-04-25T01:22:04.831Z,970.78
2018-04-25T01:23:05.072Z,970.72
2018-04-25T01:24:05.311Z,970.72
2018-04-25T01:25:05.540Z,970.73
2018-04-25T01:26:05.763Z,970.73
2018-04-25T01:27:06.003Z,970.74
2018-04-25T01:28:06.239Z,970.69
2018-04-25T01:29:06.488Z,970.69
2018-04-25T01:30:06.720Z,970.66
2018-04-25T01:31:06.957Z,970.65
2018-04-25T01:32:07.226Z,970.59
2018-04-25T01:33:07.433Z,970.62
2018-04-25T01:34:07.667Z,970.56
2018-04-25T01:35:07.883Z,970.58
2018-04-25T01:36:08.123Z,970.54
2018-04-25T01:37:08.350Z,970.52
2018-04-25T01:38:08.588Z,970.50
2018-04-25T01:39:08.821Z,970.53
2018-04-25T01:40:09.062Z,970.55
2018-04-25T01:41:09.301Z,970.52
2018-04-25T01:42:09.542Z,970.51
2018-04-25T01:43:09.773Z,970.46
2018-04-25T01:44:10.021Z,970.46
2018-04-25T01:45:10.246Z,970.44
2018-04-25T01:46:10.487Z,970.43
2018-04-25T01:47:10.752Z,970.40
2018-04-25T01:48:10.968Z,970.42
2018-04-25T01:49:11.207Z,970.41
2018-04-25T01:50:11.429Z,970.40
2018-04-25T01:51:11.656Z,970.41
2018-04-25T01:52:11.896Z,970.41
2018-04-25T01:53:12.138Z,970.39
2018-04-25T01:54:12.377Z,970.37
2018-04-25T01:55:12.626Z,970.37
2018-04-25T01:56:12.861Z,970.37
2018-04-25T01:57:13.092Z,970.34
2018-04-25T01:58:13.327Z,970.38
2018-04-25T01:59:13.565Z,970.40
2018-04-25T02:00:13.798Z,970.31
2018-04-25T02:01:14.048Z,970.31
2018-04-25T02:02:14.273Z,970.31
2018-04-25T02:03:14.516Z,970.24
2018-04-25T02:04:14.747Z,970.25
2018-04-25T02:05:15.003Z,970.22
2018-04-25T02:06:15.224Z,970.22
2018-04-25T02:07:15.464Z,970.23
2018-04-25T02:08:15.686Z,970.24
2018-04-25T02:09:15.929Z,970.23
2018-04-25T02:10:16.165Z,970.17
2018-04-25T02:11:16.410Z,970.13
2018-04-25T02:12:16.660Z,970.14
2018-04-25T02:13:16.884Z,970.11
2018-04-25T02:14:17.146Z,970.15
2018-04-25T02:15:17.357Z,970.14
2018-04-25T02:16:17.602Z,970.13
2018-04-25T02:17:17.835Z,970.11
2018-04-25T02:18:18.082Z,970.08
2018-04-25T02:19:18.304Z,970.06
2018-04-25T02:20:18.559Z,970.10
2018-04-25T02:21:18.773Z,970.10
2018-04-25T02:22:19.019Z,970.07
2018-04-25T02:23:19.246Z,970.07
2018-04-25T02:24:19.490Z,970.10
2018-04-25T02:25:19.718Z,970.07
2018-04-25T02:26:19.947Z,970.09
2018-04-25T02:27:20.184Z,970.04
2018-04-25T02:28:20.427Z,970.05
2018-04-25T02:29:20.667Z,970.02
2018-04-25T02:30:20.906Z,970.04
2018-04-25T02:31:21.156Z,970.03
2018-04-25T02:32:21.378Z,969.98
2018-04-25T02:33:21.611Z,970.02
2018-04-25T02:34:21.835Z,970.04
2018-04-25T02:35:22.099Z,970.01
2018-04-25T02:36:22.328Z,969.99
2018-04-25T02:37:22.536Z,969.98
2018-04-25T02:38:22.772Z,970.03
2018-04-25T02:39:23.011Z,969.96
2018-04-25T02:40:23.251Z,969.91
2018-04-25T02:41:23.494Z,969.94
2018-04-25T02:42:23.729Z,969.92
2018-04-25T02:43:23.964Z,969.91
2018-04-25T02:44:24.198Z,969.91
2018-04-25T02:45:24.440Z,969.91
2018-04-25T02:46:24.668Z,969.95
2018-04-25T02:47:24.916Z,969.89
2018-04-25T02:48:25.148Z,969.90
2018-04-25T02:49:25.394Z,969.90
2018-04-25T02:50:25.614Z,969.84
2018-04-25T02:51:25.853Z,969.84
2018-04-25T02:52:26.091Z,969.83
2018-04-25T02:53:26.329Z,969.81
2018-04-25T02:54:26.569Z,969.82
2018-04-25T02:55:26.810Z,969.81
2018-04-25T02:56:27.043Z,969.84
2018-04-25T02:57:27.287Z,969.78
2018-04-25T02:58:27.531Z,969.80
2018-04-25T02:59:27.776Z,969.84
2018-04-25T03:00:28.017Z,969.84
2018-04-25T03:01:28.271Z,969.82
2018-04-25T03:02:28.495Z,969.84
2018-04-25T03:03:28.735Z,969.83
2018-04-25T03:04:28.976Z,969.84
2018-04-25T03:05:29.221Z,969.83
2018-04-25T03:06:29.472Z,969.85
2018-04-25T03:07:29.706Z,969.83
2018-04-25T03:08:29.930Z,969.80
2018-04-25T03:09:30.167Z,969.84
2018-04-25T03:10:30.404Z,969.86
2018-04-25T03:11:30.651Z,969.86
2018-04-25T03:12:30.889Z,969.93
2018-04-25T03:13:31.107Z,969.92
2018-04-25T03:14:31.321Z,969.91
2018-04-25T03:15:31.583Z,969.90
2018-04-25T03:16:31.825Z,969.87
2018-04-25T03:17:32.060Z,969.89
2018-04-25T03:18:32.302Z,969.87
2018-04-25T03:19:32.543Z,969.89
2018-04-25T03:20:32.781Z,969.81
2018-04-25T03:21:33.007Z,969.88
2018-04-25T03:22:33.256Z,969.87
2018-04-25T03:23:33.492Z,969.85
2018-04-25T03:24:33.715Z,969.85
2018-04-25T03:25:33.960Z,969.85
2018-04-25T03:26:34.199Z,969.81
2018-04-25T03:27:34.428Z,969.85
2018-04-25T03:28:34.667Z,969.78
2018-04-25T03:29:34.903Z,969.83
2018-04-25T03:30:35.142Z,969.83
2018-04-25T03:31:35.399Z,969.81
2018-04-25T03:32:35.603Z,969.79
2018-04-25T03:33:35.840Z,969.80
2018-04-25T03:34:36.089Z,969.79
2018-04-25T03:35:36.330Z,969.79
2018-04-25T03:36:36.539Z,969.77
2018-04-25T03:37:36.801Z,969.84
2018-04-25T03:38:37.015Z,969.87
2018-04-25T03:39:37.276Z,969.86
2018-04-25T03:40:37.531Z,969.86
2018-04-25T03:41:37.745Z,969.88
2018-04-25T03:42:37.993Z,969.92
2018-04-25T03:43:38.241Z,969.88
2018-04-25T03:44:38.480Z,969.90
2018-04-25T03:45:38.694Z,969.91
2018-04-25T03:46:38.934Z,969.92
2018-04-25T03:47:39.177Z,969.92
2018-04-25T03:48:39.407Z,969.92
2018-04-25T03:49:39.651Z,969.93
2018-04-25T03:50:39.887Z,969.92
2018-04-25T03:51:40.150Z,969.90
2018-04-25T03:52:40.363Z,969.92
2018-04-25T03:53:40.606Z,969.88
2018-04-25T03:54:40.821Z,969.85
2018-04-25T03:55:41.065Z,969.87
2018-04-25T03:56:41.292Z,969.89
2018-04-25T03:57:41.543Z,969.92
2018-04-25T03:58:41.753Z,969.88
2018-04-25T03:59:41.991Z,969.85
2018-04-25T04:00:42.226Z,969.88
2018-04-25T04:01:42.493Z,969.89
2018-04-25T04:02:42.723Z,969.89
2018-04-25T04:03:42.951Z,969.89
2018-04-25T04:04:43.195Z,969.83
2018-04-25T04:05:43.454Z,969.88
2018-04-25T04:06:43.660Z,969.89
2018-04-25T04:07:43.904Z,969.85
2018-04-25T04:08:44.144Z,969.89
2018-04-25T04:09:44.385Z,969.88
2018-04-25T04:10:44.624Z,969.81
2018-04-25T04:11:44.852Z,969.82
2018-04-25T04:12:45.092Z,969.87
2018-04-25T04:13:45.331Z,969.84
2018-04-25T04:14:45.576Z,969.81
2018-04-25T04:15:45.815Z,969.81
2018-04-25T04:16:46.057Z,969.85
2018-04-25T04:17:46.301Z,969.82
2018-04-25T04:18:46.534Z,969.83
2018-04-25T04:19:46.798Z,969.82
2018-04-25T04:20:47.047Z,969.81
2018-04-25T04:21:47.273Z,969.83
2018-04-25T04:22:47.514Z,969.79
2018-04-25T04:23:47.764Z,969.73
2018-04-25T04:24:48.044Z,969.77
2018-04-25T04:25:48.225Z,969.79
2018-04-25T04:26:48.455Z,969.77
2018-04-25T04:27:48.687Z,969.80
2018-04-25T04:28:48.960Z,969.76
2018-04-25T04:29:49.167Z,969.76
2018-04-25T04:30:49.414Z,969.72
2018-04-25T04:31:49.655Z,969.78
2018-04-25T04:32:49.903Z,969.73
2018-04-25T04:33:50.136Z,969.77
2018-04-25T04:34:50.381Z,969.75
2018-04-25T04:35:50.614Z,969.73
2018-04-25T04:36:50.841Z,969.75
2018-04-25T04:37:51.075Z,969.71
2018-04-25T04:38:51.313Z,969.68
2018-04-25T04:39:51.545Z,969.70
2018-04-25T04:40:51.783Z,969.66
2018-04-25T04:41:52.020Z,969.67
2018-04-25T04:42:52.255Z,969.68
2018-04-25T04:43:52.486Z,969.75
2018-04-25T04:44:52.736Z,969.70
2018-04-25T04:45:52.949Z,969.68
2018-04-25T04:46:53.197Z,969.68
2018-04-25T04:47:53.461Z,969.71
2018-04-25T04:48:53.669Z,969.67
2018-04-25T04:49:53.936Z,969.68
2018-04-25T04:50:54.146Z,969.72
2018-04-25T04:51:54.383Z,969.75
2018-04-25T04:52:54.617Z,969.70
2018-04-25T04:53:54.857Z,969.70
2018-04-25T04:54:55.087Z,969.67
2018-04-25T04:55:55.347Z,969.69
2018-04-25T04:56:55.581Z,969.70
2018-04-25T04:57:55.806Z,969.71
2018-04-25T04:58:56.044Z,969.68
2018-04-25T04:59:56.287Z,969.70
2018-04-25T05:00:56.515Z,969.71
2018-04-25T05:01:56.752Z,969.76
2018-04-25T05:02:56.988Z,969.75
2018-04-25T05:03:57.241Z,969.73
2018-04-25T05:04:57.463Z,969.72
2018-04-25T05:05:57.717Z,969.72
2018-04-25T05:06:57.935Z,969.76
2018-04-25T05:07:58.172Z,969.71
2018-04-25T05:08:58.456Z,969.69
2018-04-25T05:09:58.644Z,969.66
2018-04-25T05:10:58.883Z,969.65
2018-04-25T05:11:59.119Z,969.65
2018-04-25T05:12:59.429Z,969.63
2018-04-25T05:13:59.605Z,969.65
2018-04-25T05:14:59.809Z,969.64
2018-04-25T05:16:00.049Z,969.73
2018-04-25T05:17:00.279Z,969.67
2018-04-25T05:18:00.568Z,969.64
2018-04-25T05:19:00.812Z,969.61
2018-04-25T05:20:01.059Z,969.69
2018-04-25T05:21:01.297Z,969.62
2018-04-25T05:22:01.522Z,969.67
2018-04-25T05:23:01.781Z,969.61
2018-04-25T05:24:02.006Z,969.63
2018-04-25T05:25:02.248Z,969.65
2018-04-25T05:26:02.495Z,969.60
2018-04-25T05:27:02.750Z,969.65
2018-04-25T05:28:02.990Z,969.66
2018-04-25T05:29:03.231Z,969.66
2018-04-25T05:30:03.492Z,969.61
2018-04-25T05:31:03.720Z,969.66
2018-04-25T05:32:04.015Z,969.62
2018-04-25T05:33:04.180Z,969.69
2018-04-25T05:34:04.434Z,969.63
2018-04-25T05:35:04.662Z,969.65
2018-04-25T05:36:04.923Z,969.58
2018-04-25T05:37:05.136Z,969.66
2018-04-25T05:38:05.477Z,969.57
2018-04-25T05:39:05.722Z,969.68
2018-04-25T05:40:05.985Z,969.68
2018-04-25T05:41:06.246Z,969.64
2018-04-25T05:42:06.528Z,969.58
2018-04-25T05:43:06.766Z,969.67
2018-04-25T05:44:06.990Z,969.63
2018-04-25T05:45:14.935Z,969.66
2018-04-25T05:46:07.611Z,969.72
2018-04-25T05:47:07.865Z,969.69
2018-04-25T05:48:08.106Z,969.74
2018-04-25T05:49:08.376Z,969.68
2018-04-25T05:50:08.542Z,969.72
2018-04-25T05:51:16.456Z,969.65
2018-04-25T05:52:17.815Z,969.70
2018-04-25T05:53:09.571Z,969.66
2018-04-25T05:54:09.810Z,969.65
2018-04-25T05:55:19.682Z,969.65
2018-04-25T05:56:17.896Z,969.62
2018-04-25T05:57:19.210Z,969.63
2018-04-25T05:58:19.663Z,969.57
2018-04-25T05:59:19.017Z,969.56
2018-04-25T06:00:20.354Z,969.61
2018-04-25T06:01:20.783Z,969.65
2018-04-25T06:02:20.141Z,969.64
2018-04-25T06:03:21.512Z,969.63
2018-04-25T06:04:21.682Z,969.70
2018-04-25T06:05:22.016Z,969.73
2018-04-25T06:06:22.408Z,969.72
2018-04-25T06:07:22.839Z,969.71
2018-04-25T06:08:22.300Z,969.66
2018-04-25T06:09:22.688Z,969.76
2018-04-25T06:10:24.885Z,969.73
2018-04-25T06:11:24.320Z,969.72
2018-04-25T06:12:23.588Z,969.66
2018-04-25T06:13:25.830Z,969.63
2018-04-25T06:14:24.076Z,969.64
2018-04-25T06:15:24.459Z,969.65
2018-04-25T06:16:24.756Z,969.66
2018-04-25T06:17:25.200Z,969.72
2018-04-25T06:18:27.458Z,969.63
2018-04-25T06:19:27.675Z,969.64
2018-04-25T06:20:25.968Z,969.66
2018-04-25T06:21:28.350Z,969.67
2018-04-25T06:22:27.590Z,969.78
2018-04-25T06:23:28.018Z,969.64
2018-04-25T06:24:27.462Z,969.69
2018-04-25T06:25:28.751Z,969.66
2018-04-25T06:26:28.223Z,969.71
2018-04-25T06:27:29.469Z,969.76
2018-04-25T06:28:29.458Z,969.77
2018-04-25T06:29:31.263Z,969.71
2018-04-25T06:30:29.521Z,969.70
2018-04-25T06:31:29.929Z,969.71
2018-04-25T06:32:30.228Z,969.72
2018-04-25T06:33:30.572Z,969.78
2018-04-25T06:34:32.882Z,969.74
2018-04-25T06:35:32.138Z,969.67
2018-04-25T06:36:32.389Z,969.77
2018-04-25T06:37:31.740Z,969.65
2018-04-25T06:38:33.083Z,969.69
2018-04-25T06:39:32.291Z,969.64
2018-04-25T06:40:33.570Z,969.69
2018-04-25T06:41:26.066Z,969.68
2018-04-25T06:42:34.101Z,969.74
2018-04-25T06:43:25.812Z,969.67
2018-04-25T06:44:26.043Z,969.69
2018-04-25T06:45:26.286Z,969.67
2018-04-25T06:46:34.180Z,969.64
2018-04-25T06:47:34.499Z,969.71
2018-04-25T06:48:35.802Z,969.85
2018-04-25T06:49:27.545Z,969.69
2018-04-25T06:50:35.442Z,969.78
2018-04-25T06:51:28.081Z,969.76
2018-04-25T06:52:28.331Z,969.75
2018-04-25T06:53:28.576Z,969.51
2018-04-25T06:54:28.817Z,969.71
2018-04-25T06:55:29.059Z,969.67
2018-04-25T06:56:29.306Z,969.64
2018-04-25T06:57:29.537Z,969.62
2018-04-25T06:58:29.781Z,969.62
2018-04-25T06:59:30.024Z,969.71
2018-04-25T07:00:30.272Z,969.47
2018-04-25T07:01:30.678Z,969.39
2018-04-25T07:02:31.206Z,969.58
2018-04-25T07:03:31.114Z,969.60
2018-04-25T07:04:31.359Z,969.57
2018-04-25T07:05:31.600Z,969.68
2018-04-25T07:06:31.844Z,969.73
2018-04-25T07:07:32.088Z,969.70
2018-04-25T07:08:32.329Z,969.51
2018-04-25T07:09:32.576Z,969.59
2018-04-25T07:10:32.824Z,969.68
2018-04-25T07:11:33.066Z,969.66
2018-04-25T07:12:33.307Z,969.61
2018-04-25T07:13:33.551Z,969.69
2018-04-25T07:14:33.792Z,969.70
2018-04-25T07:15:34.025Z,969.84
2018-04-25T07:16:34.269Z,969.80
2018-04-25T07:17:34.519Z,969.78
2018-04-25T07:18:34.759Z,969.90
2018-04-25T07:19:35.003Z,969.73
2018-04-25T07:20:35.244Z,969.67
2018-04-25T07:21:35.488Z,969.67
2018-04-25T07:22:35.730Z,969.80
2018-04-25T07:23:35.973Z,969.70
2018-04-25T07:24:36.214Z,969.62
2018-04-25T07:25:36.460Z,969.62
2018-04-25T07:26:36.703Z,969.88
2018-04-25T07:27:36.948Z,969.78
2018-04-25T07:28:37.193Z,969.84
2018-04-25T07:29:37.444Z,969.76
2018-04-25T07:30:37.668Z,969.73
2018-04-25T07:31:37.911Z,969.80
2018-04-25T07:32:38.197Z,969.87
2018-04-25T07:33:38.404Z,969.80
2018-04-25T07:34:38.647Z,969.82
2018-04-25T07:35:38.890Z,969.89
2018-04-25T07:36:39.134Z,969.59
2018-04-25T07:37:39.386Z,969.85
2018-04-25T07:38:39.620Z,969.74
2018-04-25T07:39:39.867Z,969.68
2018-04-25T07:40:40.111Z,969.72
2018-04-25T07:41:40.422Z,969.82
2018-04-25T07:42:40.603Z,969.67
2018-04-25T07:43:40.850Z,969.69
2018-04-25T07:44:41.092Z,969.76
2018-04-25T07:45:41.351Z,969.82
2018-04-25T07:46:41.586Z,969.73
2018-04-25T07:47:41.833Z,969.71
2018-04-25T07:48:42.082Z,969.72
2018-04-25T07:49:42.325Z,969.63
2018-04-25T07:50:42.560Z,969.75
2018-04-25T07:51:42.810Z,969.85
2018-04-25T07:52:43.058Z,969.69
2018-04-25T07:53:43.290Z,969.69
2018-04-25T07:54:43.530Z,969.67
2018-04-25T07:55:43.778Z,969.84
2018-04-25T07:56:44.007Z,969.87
2018-04-25T07:57:44.297Z,969.93
2018-04-25T07:58:44.515Z,969.86
2018-04-25T07:59:44.761Z,969.96
2018-04-25T08:00:45.008Z,969.99
2018-04-25T08:01:45.255Z,969.86
2018-04-25T08:02:45.505Z,969.80
2018-04-25T08:03:45.750Z,969.82
2018-04-25T08:04:45.993Z,969.93
2018-04-25T08:05:46.240Z,969.96
2018-04-25T08:06:46.488Z,970.04
2018-04-25T08:07:46.742Z,969.90
2018-04-25T08:08:46.971Z,970.05
2018-04-25T08:09:47.217Z,970.01
2018-04-25T08:10:47.467Z,970.08
2018-04-25T08:11:47.720Z,969.95
2018-04-25T08:12:47.957Z,970.12
2018-04-25T08:13:48.206Z,969.96
2018-04-25T08:14:48.450Z,969.97
2018-04-25T08:15:48.700Z,970.07
2018-04-25T08:16:48.948Z,969.99
2018-04-25T08:17:49.194Z,970.01
2018-04-25T08:18:49.437Z,969.85
2018-04-25T08:19:49.682Z,970.07
2018-04-25T08:20:49.927Z,970.08
2018-04-25T08:21:50.180Z,970.29
2018-04-25T08:22:50.424Z,970.26
2018-04-25T08:23:50.764Z,970.26
2018-04-25T08:24:50.915Z,970.21
2018-04-25T08:25:51.163Z,970.33
2018-04-25T08:26:51.399Z,970.22
2018-04-25T08:27:51.647Z,970.08
2018-04-25T08:28:51.893Z,970.11
2018-04-25T08:29:52.140Z,970.25
2018-04-25T08:30:52.389Z,970.33
2018-04-25T08:31:52.637Z,970.40
2018-04-25T08:32:52.892Z,970.41
2018-04-25T08:33:53.139Z,970.43
2018-04-25T08:34:53.387Z,970.51
2018-04-25T08:35:53.635Z,970.43
2018-04-25T08:36:53.883Z,970.11
2018-04-25T08:37:54.132Z,970.51
2018-04-25T08:38:54.377Z,970.51
2018-04-25T08:39:54.629Z,970.50
2018-04-25T08:40:54.880Z,970.57
2018-04-25T08:41:55.121Z,970.28
2018-04-25T08:42:55.379Z,970.57
2018-04-25T08:43:55.614Z,970.77
2018-04-25T08:44:55.880Z,970.64
2018-04-25T08:45:56.115Z,970.92
2018-04-25T08:46:56.366Z,970.27
2018-04-25T08:47:56.615Z,970.38
2018-04-25T08:48:56.867Z,970.45
2018-04-25T08:49:57.114Z,970.63
2018-04-25T08:50:57.366Z,970.90
2018-04-25T08:51:57.618Z,970.70
2018-04-25T08:52:57.869Z,970.70
2018-04-25T08:53:58.119Z,970.48
2018-04-25T08:54:58.373Z,970.38
2018-04-25T08:55:58.622Z,970.95
2018-04-25T08:56:58.871Z,970.87
2018-04-25T08:57:59.120Z,970.95
2018-04-25T08:58:59.369Z,971.00
2018-04-25T08:59:59.626Z,970.56
2018-04-25T09:00:59.873Z,970.83
2018-04-25T09:02:00.122Z,970.95
2018-04-25T09:03:00.369Z,971.03
2018-04-25T09:04:00.628Z,970.64
2018-04-25T09:05:00.872Z,970.34
2018-04-25T09:06:01.124Z,970.39
2018-04-25T09:07:01.376Z,970.37
2018-04-25T09:08:01.627Z,970.33
2018-04-25T09:09:01.872Z,970.43
2018-04-25T09:10:02.122Z,970.19
2018-04-25T09:11:02.367Z,970.38
2018-04-25T09:12:02.622Z,970.31
2018-04-25T09:13:02.874Z,970.39
2018-04-25T09:14:03.123Z,970.84
2018-04-25T09:15:03.371Z,970.37
2018-04-25T09:16:03.628Z,970.42
2018-04-25T09:17:03.864Z,970.31
2018-04-25T09:18:04.114Z,970.23
2018-04-25T09:19:04.370Z,970.35
2018-04-25T09:20:04.601Z,970.35
2018-04-25T09:21:04.850Z,970.27
2018-04-25T09:22:05.095Z,970.28
2018-04-25T09:23:05.343Z,970.40
2018-04-25T09:24:05.590Z,970.41
2018-04-25T09:25:05.839Z,970.28
2018-04-25T09:26:06.089Z,970.27
2018-04-25T09:27:06.334Z,970.34
2018-04-25T09:28:06.580Z,970.29
2018-04-25T09:29:06.828Z,970.28
2018-04-25T09:30:07.077Z,970.16
2018-04-25T09:31:07.316Z,970.31
2018-04-25T09:32:07.561Z,970.31
2018-04-25T09:33:07.808Z,970.31
2018-04-25T09:34:08.056Z,970.44
2018-04-25T09:35:08.303Z,970.54
2018-04-25T09:36:08.553Z,970.56
2018-04-25T09:37:08.840Z,971.21
2018-04-25T09:38:09.100Z,970.56
2018-04-25T09:39:09.338Z,970.45
2018-04-25T09:40:09.583Z,970.50
2018-04-25T09:41:09.829Z,970.43
2018-04-25T09:42:10.079Z,970.26
2018-04-25T09:43:10.326Z,970.33
2018-04-25T09:44:10.568Z,970.07
2018-04-25T09:45:10.821Z,970.11
2018-04-25T09:46:11.061Z,970.23
2018-04-25T09:47:11.309Z,970.20
2018-04-25T09:48:11.556Z,970.22
2018-04-25T09:49:11.792Z,970.21
2018-04-25T09:50:12.044Z,970.26
2018-04-25T09:51:12.294Z,970.29
2018-04-25T09:52:12.533Z,970.13
2018-04-25T09:53:12.776Z,970.31
2018-04-25T09:54:13.014Z,970.43
2018-04-25T09:55:13.261Z,970.28
2018-04-25T09:56:13.508Z,970.36
2018-04-25T09:57:13.753Z,970.26
2018-04-25T09:58:13.996Z,970.38
2018-04-25T09:59:14.247Z,970.37
2018-04-25T10:00:14.489Z,970.30
2018-04-25T10:01:14.735Z,970.41
2018-04-25T10:02:14.979Z,970.33
2018-04-25T10:03:15.219Z,970.36
2018-04-25T10:04:15.467Z,970.41
2018-04-25T10:05:15.713Z,970.39
2018-04-25T10:06:15.956Z,970.37
2018-04-25T10:07:16.204Z,970.42
2018-04-25T10:08:16.441Z,970.45
2018-04-25T10:09:16.683Z,970.42
2018-04-25T10:10:16.926Z,970.45
2018-04-25T10:11:17.171Z,970.47
2018-04-25T10:12:17.413Z,970.44
2018-04-25T10:13:17.654Z,970.33
2018-04-25T10:14:17.909Z,970.43
2018-04-25T10:15:18.173Z,970.41
2018-04-25T10:16:18.390Z,970.26
2018-04-25T10:17:18.648Z,970.57
2018-04-25T10:18:18.877Z,970.47
2018-04-25T10:19:19.120Z,970.48
2018-04-25T10:20:19.364Z,970.49
2018-04-25T10:21:19.611Z,970.24
2018-04-25T10:22:19.859Z,970.50
2018-04-25T10:23:20.100Z,970.36
2018-04-25T10:24:20.348Z,970.50
2018-04-25T10:25:20.589Z,970.60
2018-04-25T10:26:20.835Z,970.75
2018-04-25T10:27:21.085Z,970.59
2018-04-25T10:28:21.327Z,970.47
2018-04-25T10:29:21.573Z,970.76
2018-04-25T10:30:21.816Z,970.46
2018-04-25T10:31:22.062Z,970.61
2018-04-25T10:32:22.309Z,970.52
2018-04-25T10:33:22.553Z,970.40
2018-04-25T10:34:22.798Z,970.46
2018-04-25T10:35:23.039Z,970.40
2018-04-25T10:36:23.281Z,970.40
2018-04-25T10:37:23.521Z,970.49
2018-04-25T10:38:23.773Z,970.51
2018-04-25T10:39:24.012Z,970.41
2018-04-25T10:40:24.327Z,970.36
2018-04-25T10:41:24.501Z,970.38
2018-04-25T10:42:24.748Z,970.41
2018-04-25T10:43:24.996Z,970.34
2018-04-25T10:44:25.244Z,970.33
2018-04-25T10:45:25.485Z,970.16
2018-04-25T10:46:25.730Z,970.45
2018-04-25T10:47:25.976Z,970.40
2018-04-25T10:48:26.219Z,970.50
2018-04-25T10:49:26.457Z,970.49
2018-04-25T10:50:26.703Z,970.46
2018-04-25T10:51:26.951Z,970.47
2018-04-25T10:52:27.206Z,970.44
2018-04-25T10:53:27.445Z,970.49
2018-04-25T10:54:27.691Z,970.44
2018-04-25T10:55:27.951Z,970.23
2018-04-25T10:56:28.361Z,970.32
2018-04-25T10:57:28.391Z,970.19
2018-04-25T10:58:28.637Z,970.38
2018-04-25T10:59:28.883Z,970.54
2018-04-25T11:00:29.131Z,970.51
2018-04-25T11:01:29.376Z,970.43
2018-04-25T11:02:29.636Z,970.49
2018-04-25T11:03:29.868Z,970.42
2018-04-25T11:04:30.120Z,970.49
2018-04-25T11:05:30.357Z,970.48
2018-04-25T11:06:30.604Z,970.25
2018-04-25T11:07:30.900Z,970.30
2018-04-25T11:08:31.096Z,970.31
2018-04-25T11:09:31.341Z,970.35
2018-04-25T11:10:31.588Z,970.24
2018-04-25T11:11:31.826Z,970.31
2018-04-25T11:12:32.077Z,970.26
2018-04-25T11:13:32.324Z,970.29
2018-04-25T11:14:32.569Z,970.54
2018-04-25T11:15:32.809Z,970.40
2018-04-25T11:16:33.050Z,970.41
2018-04-25T11:17:33.300Z,970.53
2018-04-25T11:18:33.537Z,970.60
2018-04-25T11:19:33.782Z,970.43
2018-04-25T11:20:34.027Z,970.57
2018-04-25T11:21:34.291Z,970.45
2018-04-25T11:22:34.507Z,970.56
2018-04-25T11:23:34.753Z,970.48
2018-04-25T11:24:35.023Z,970.41
2018-04-25T11:25:35.244Z,970.56
2018-04-25T11:26:35.515Z,970.68
2018-04-25T11:27:35.737Z,970.73
2018-04-25T11:28:35.971Z,970.69
2018-04-25T11:29:36.221Z,970.61
2018-04-25T11:30:36.460Z,970.79
2018-04-25T11:31:36.706Z,971.34
2018-04-25T11:32:36.955Z,971.50
2018-04-25T11:33:37.206Z,971.69
2018-04-25T11:34:37.436Z,970.85
2018-04-25T11:35:37.689Z,971.06
2018-04-25T11:36:37.930Z,971.05
2018-04-25T11:37:38.176Z,970.87
2018-04-25T11:38:38.420Z,970.86
2018-04-25T11:39:38.669Z,970.75
2018-04-25T11:40:38.910Z,970.74
2018-04-25T11:41:39.165Z,970.76
2018-04-25T11:42:39.407Z,970.76
2018-04-25T11:43:39.677Z,970.63
2018-04-25T11:44:39.925Z,970.74
2018-04-25T11:45:40.212Z,970.71
2018-04-25T11:46:40.382Z,970.84
2018-04-25T11:47:49.274Z,970.82
2018-04-25T11:48:48.668Z,970.89
2018-04-25T11:49:41.322Z,970.94
2018-04-25T11:50:41.566Z,970.99
2018-04-25T11:51:41.815Z,970.96
2018-04-25T11:52:50.732Z,971.07
2018-04-25T11:53:42.475Z,970.98
2018-04-25T11:54:42.677Z,970.87
2018-04-25T11:55:51.532Z,970.93
2018-04-25T11:56:50.985Z,970.87
2018-04-25T11:57:43.707Z,970.89
2018-04-25T11:58:43.963Z,970.92
2018-04-25T11:59:53.057Z,971.00
2018-04-25T12:00:44.714Z,971.02
2018-04-25T12:01:52.990Z,971.10
2018-04-25T12:02:45.425Z,971.09
2018-04-25T12:03:45.541Z,971.17
2018-04-25T12:04:45.769Z,971.20
2018-04-25T12:05:53.693Z,971.17
2018-04-25T12:06:46.324Z,971.17
2018-04-25T12:07:54.484Z,971.18
2018-04-25T12:08:54.717Z,971.25
2018-04-25T12:09:47.231Z,971.10
2018-04-25T12:10:47.379Z,971.17
2018-04-25T12:11:55.345Z,971.17
2018-04-25T12:12:55.602Z,971.21
2018-04-25T12:13:57.041Z,971.27
2018-04-25T12:14:48.694Z,971.28
2018-04-25T12:15:58.886Z,971.23
2018-04-25T12:16:57.155Z,971.28
2018-04-25T12:17:57.871Z,971.30
2018-04-25T12:18:58.796Z,971.44
2018-04-25T12:19:58.348Z,971.88
2018-04-25T12:20:50.860Z,972.04
2018-04-25T12:22:00.135Z,971.64
2018-04-25T12:22:51.500Z,971.60
2018-04-25T12:23:59.673Z,971.98
2018-04-25T12:25:00.822Z,972.02
2018-04-25T12:26:00.130Z,971.97
2018-04-25T12:27:01.303Z,972.00
2018-04-25T12:27:52.823Z,971.80
2018-04-25T12:29:00.615Z,971.75
2018-04-25T12:30:01.135Z,971.60
2018-04-25T12:30:53.702Z,971.75
2018-04-25T12:32:01.819Z,971.91